This is the latest recevied weather packets stored in our database for station/object YO4TNV-15. If no packets are shown the sender has not sent any weather packets the latest 1 day(s).
| Time | Temp. | Humidity | Pressure | Rain* | Wind** | Luminosity | Snow |
|---|---|---|---|---|---|---|---|
| 1778098954 | 18.89° C | 42% | 1000.5 hPa | - | - | - | - |
| 1778098942 | 18.89° C | 42% | 1000.5 hPa | - | - | - | - |
| 1778097142 | 19.44° C | 39% | 1000.3 hPa | - | - | - | - |
| 1778095352 | 19.44° C | 39% | 1000.1 hPa | - | - | - | - |
| 1778093552 | 20° C | 38% | 999.8 hPa | - | - | - | - |
| 1778092640 | 20.56° C | 37% | 999.7 hPa | - | - | - | - |
| 1778091748 | 20.56° C | 37% | 999.6 hPa | - | - | - | - |
| 1778091740 | 20.56° C | 37% | 999.6 hPa | - | - | - | - |
| 1778090848 | 21.11° C | 35% | 999.4 hPa | - | - | - | - |
| 1778090840 | 21.11° C | 35% | 999.4 hPa | - | - | - | - |
| 1778087247 | 23.33° C | 31% | 998.8 hPa | - | - | - | - |
| 1778087239 | 23.33° C | 31% | 998.8 hPa | - | - | - | - |
| 1778086347 | 23.33° C | 31% | 998.9 hPa | - | - | - | - |
| 1778086339 | 23.33° C | 31% | 998.9 hPa | - | - | - | - |
| 1778085439 | 23.89° C | 29% | 998.8 hPa | - | - | - | - |
| 1778081846 | 25.56° C | 26% | 998.6 hPa | - | - | - | - |
| 1778081838 | 25.56° C | 26% | 998.6 hPa | - | - | - | - |
| 1778080938 | 26.11° C | 26% | 998.6 hPa | - | - | - | - |
| 1778080046 | 26.11° C | 25% | 998.7 hPa | - | - | - | - |
| 1778080038 | 26.11° C | 25% | 998.7 hPa | - | - | - | - |
| 1778077337 | 26.11° C | 25% | 998.9 hPa | - | - | - | - |
| 1778076437 | 26.67° C | 25% | 998.7 hPa | - | - | - | - |
| 1778075537 | 26.67° C | 25% | 998.8 hPa | - | - | - | - |
| 1778074637 | 26.67° C | 25% | 998.9 hPa | - | - | - | - |
| 1778071946 | 26.67° C | 24% | 999 hPa | - | - | - | - |
* Rain since midnight (hover to see other rain measurements)
** Current wind speed in m/s (hover to see current wind gust speed)